Time;durP1;ratioP1;P1;durP2;ratioP2;P2;SDS_P1;SDS_P2;PMS_P1;PMS_P2;Temp;Humidity;BMP_temperature;BMP_pressure;BME280_temperature;BME280_humidity;BME280_pressure;Samples;Min_cycle;Max_cycle;Signal;HPM_P1;HPM_P2
2022/04/27 00:00:24;;;;;;;11.90;4.75;;;;;;;;;;4993133;28;20296;-61
2022/04/27 00:02:49;;;;;;;8.98;4.43;;;;;;;;;;4991097;28;20209;-60
2022/04/27 00:05:14;;;;;;;11.20;4.50;;;;;;;;;;4992822;28;20205;-60
2022/04/27 00:07:40;;;;;;;9.73;4.60;;;;;;;;;;4993334;28;20293;-60
2022/04/27 00:10:05;;;;;;;10.93;4.85;;;;;;;;;;4992058;28;20217;-61
2022/04/27 00:12:31;;;;;;;8.63;4.60;;;;;;;;;;4993282;28;20239;-61
2022/04/27 00:14:56;;;;;;;9.23;4.53;;;;;;;;;;4992646;28;20572;-61
2022/04/27 00:17:21;;;;;;;9.50;5.07;;;;;;;;;;4992545;28;20225;-61
2022/04/27 00:19:47;;;;;;;10.63;5.43;;;;;;;;;;4993098;28;20232;-60
2022/04/27 00:22:13;;;;;;;10.23;4.97;;;;;;;;;;4991962;28;20248;-61
2022/04/27 00:24:39;;;;;;;13.02;5.60;;;;;;;;;;4993224;28;20201;-60
2022/04/27 00:27:04;;;;;;;12.73;5.15;;;;;;;;;;4992568;28;20731;-61
2022/04/27 00:29:30;;;;;;;9.27;5.00;;;;;;;;;;4991175;28;20638;-60
2022/04/27 00:31:55;;;;;;;11.27;5.35;;;;;;;;;;4993050;28;20212;-61
2022/04/27 00:34:20;;;;;;;10.50;5.22;;;;;;;;;;4992438;28;20209;-60
2022/04/27 00:36:45;;;;;;;12.07;4.90;;;;;;;;;;4992344;28;20229;-61
2022/04/27 00:39:11;;;;;;;13.27;5.22;;;;;;;;;;4992512;28;20603;-60
2022/04/27 00:41:37;;;;;;;13.07;5.20;;;;;;;;;;4993099;28;20292;-60
2022/04/27 00:44:02;;;;;;;9.57;5.18;;;;;;;;;;4991877;28;20244;-60
2022/04/27 00:46:27;;;;;;;12.73;5.20;;;;;;;;;;4986458;28;20227;-60
2022/04/27 00:48:53;;;;;;;10.98;5.13;;;;;;;;;;4973700;28;21130;-60
2022/04/27 00:51:19;;;;;;;10.00;5.30;;;;;;;;;;4975304;28;20243;-60
2022/04/27 00:53:44;;;;;;;9.85;5.15;;;;;;;;;;4982076;28;20344;-60
2022/04/27 00:56:09;;;;;;;10.35;5.18;;;;;;;;;;4971572;28;20292;-61
2022/04/27 00:58:35;;;;;;;8.48;4.95;;;;;;;;;;4962911;28;20273;-60
2022/04/27 01:01:00;;;;;;;8.80;4.97;;;;;;;;;;4960968;28;20206;-61
2022/04/27 01:03:25;;;;;;;9.07;5.10;;;;;;;;;;4955908;28;20229;-60
2022/04/27 01:05:51;;;;;;;12.60;5.03;;;;;;;;;;4973863;28;20217;-61
2022/04/27 01:08:16;;;;;;;10.40;4.90;;;;;;;;;;4976316;28;20213;-60
2022/04/27 01:10:42;;;;;;;10.07;5.10;;;;;;;;;;4982615;28;20221;-60
2022/04/27 01:13:07;;;;;;;10.85;4.95;;;;;;;;;;4981360;28;20213;-60
2022/04/27 01:15:32;;;;;;;10.85;5.22;;;;;;;;;;4997379;28;20213;-60
2022/04/27 01:17:58;;;;;;;10.32;5.07;;;;;;;;;;4997199;28;20279;-60
2022/04/27 01:20:23;;;;;;;10.80;5.13;;;;;;;;;;4980484;28;20216;-60
2022/04/27 01:22:48;;;;;;;10.57;5.30;;;;;;;;;;4966460;28;20225;-60
2022/04/27 01:25:14;;;;;;;10.77;4.78;;;;;;;;;;4958789;28;20210;-61
2022/04/27 01:27:45;;;;;;;8.00;4.68;;;;;;;;;;4977806;28;20210;-60
2022/04/27 01:30:10;;;;;;;11.68;5.32;;;;;;;;;;4978791;28;20217;-60
2022/04/27 01:32:36;;;;;;;10.05;5.20;;;;;;;;;;4984336;28;20220;-60
2022/04/27 01:35:01;;;;;;;10.00;5.20;;;;;;;;;;4985543;28;20295;-60
2022/04/27 01:40:10;;;;;;;10.95;5.15;;;;;;;;;;4984789;28;20663;-60
2022/04/27 01:42:36;;;;;;;9.05;5.65;;;;;;;;;;4985775;28;20308;-60
2022/04/27 01:45:02;;;;;;;11.45;4.75;;;;;;;;;;4985558;28;20216;-60
2022/04/27 01:47:27;;;;;;;12.52;5.65;;;;;;;;;;4978963;28;20794;-60
2022/04/27 01:49:52;;;;;;;11.60;5.30;;;;;;;;;;4977436;28;20248;-60
2022/04/27 01:55:02;;;;;;;11.07;5.68;;;;;;;;;;4979785;28;20216;-60
2022/04/27 01:57:27;;;;;;;9.55;5.53;;;;;;;;;;4981348;28;20230;-60
2022/04/27 01:59:54;;;;;;;13.13;5.78;;;;;;;;;;4984968;28;20217;-60
2022/04/27 02:02:20;;;;;;;10.07;5.43;;;;;;;;;;4970481;28;20211;-61
2022/04/27 02:04:46;;;;;;;10.52;6.10;;;;;;;;;;4966188;28;20214;-60
2022/04/27 02:07:11;;;;;;;15.20;5.85;;;;;;;;;;4984516;28;20679;-60
2022/04/27 02:09:36;;;;;;;13.00;5.47;;;;;;;;;;4979677;28;20216;-60
2022/04/27 02:12:02;;;;;;;8.80;5.45;;;;;;;;;;4976860;28;20209;-60
2022/04/27 02:14:27;;;;;;;9.95;5.72;;;;;;;;;;4977196;28;21127;-60
2022/04/27 02:16:53;;;;;;;8.68;5.13;;;;;;;;;;4981511;28;20217;-61
2022/04/27 02:19:18;;;;;;;10.32;5.53;;;;;;;;;;4984542;28;20267;-60
2022/04/27 02:21:43;;;;;;;11.30;5.88;;;;;;;;;;4984203;28;20211;-60
2022/04/27 02:24:09;;;;;;;9.55;5.40;;;;;;;;;;4984742;28;20759;-60
2022/04/27 02:26:34;;;;;;;9.63;5.35;;;;;;;;;;4984812;28;20603;-61
2022/04/27 02:29:00;;;;;;;9.90;5.65;;;;;;;;;;4984460;28;20259;-60
2022/04/27 02:31:27;;;;;;;13.15;6.13;;;;;;;;;;4981913;28;20755;-60
2022/04/27 02:33:52;;;;;;;10.23;6.53;;;;;;;;;;4976031;28;20310;-60
2022/04/27 02:36:17;;;;;;;13.27;6.30;;;;;;;;;;4975636;28;20634;-60
2022/04/27 02:38:43;;;;;;;11.38;6.07;;;;;;;;;;4978615;28;20673;-60
2022/04/27 02:41:08;;;;;;;9.38;5.18;;;;;;;;;;4984203;28;20209;-60
2022/04/27 02:43:33;;;;;;;12.02;5.80;;;;;;;;;;4984211;28;20217;-60
2022/04/27 02:45:59;;;;;;;11.50;5.30;;;;;;;;;;4984382;28;20305;-60
2022/04/27 02:48:24;;;;;;;13.43;5.75;;;;;;;;;;4984214;28;20263;-60
2022/04/27 02:53:35;;;;;;;10.10;5.65;;;;;;;;;;4983861;28;20212;-61
2022/04/27 02:56:03;;;;;;;9.32;5.68;;;;;;;;;;4965460;28;20313;-60
2022/04/27 02:58:28;;;;;;;11.73;6.35;;;;;;;;;;4952838;28;20327;-60
2022/04/27 03:00:53;;;;;;;9.82;5.75;;;;;;;;;;4958255;28;20304;-60
2022/04/27 03:03:18;;;;;;;10.25;6.30;;;;;;;;;;4964713;28;20222;-60
2022/04/27 03:05:44;;;;;;;9.43;6.13;;;;;;;;;;4964448;28;20315;-60
2022/04/27 03:08:09;;;;;;;13.38;6.15;;;;;;;;;;4964533;28;20569;-60
2022/04/27 03:10:34;;;;;;;11.68;6.65;;;;;;;;;;4964928;28;20257;-60
2022/04/27 03:13:00;;;;;;;10.55;6.30;;;;;;;;;;4964689;28;20301;-60
2022/04/27 03:15:25;;;;;;;13.27;6.13;;;;;;;;;;4983198;28;20716;-60
2022/04/27 03:18:17;;;;;;;11.95;6.10;;;;;;;;;;4977850;28;20914;-60
2022/04/27 03:20:35;;;;;;;11.35;6.20;;;;;;;;;;4975685;28;20209;-60
2022/04/27 03:23:01;;;;;;;12.77;6.95;;;;;;;;;;4976029;28;20220;-59
2022/04/27 03:25:26;;;;;;;14.48;6.88;;;;;;;;;;4981038;28;20583;-60
2022/04/27 03:27:51;;;;;;;13.45;6.55;;;;;;;;;;4983927;28;20219;-60
2022/04/27 03:30:17;;;;;;;11.65;6.70;;;;;;;;;;4983158;28;20229;-60
2022/04/27 03:32:42;;;;;;;11.63;6.50;;;;;;;;;;4982940;28;20209;-61
2022/04/27 03:35:07;;;;;;;13.55;6.38;;;;;;;;;;4983292;28;20220;-61
2022/04/27 03:37:32;;;;;;;11.55;6.40;;;;;;;;;;4983448;28;20225;-62
2022/04/27 03:39:58;;;;;;;14.10;6.70;;;;;;;;;;4979347;28;20955;-62
2022/04/27 03:42:23;;;;;;;10.70;5.97;;;;;;;;;;4974829;28;20275;-61
2022/04/27 03:44:48;;;;;;;10.52;6.43;;;;;;;;;;4975388;28;20213;-61
2022/04/27 03:47:14;;;;;;;14.27;6.63;;;;;;;;;;4978430;28;20628;-61
2022/04/27 03:49:39;;;;;;;19.52;6.43;;;;;;;;;;4983721;28;21186;-61
2022/04/27 03:52:04;;;;;;;15.98;6.28;;;;;;;;;;4982744;28;20229;-61
2022/04/27 03:54:30;;;;;;;11.57;6.50;;;;;;;;;;4982687;28;20681;-61
2022/04/27 03:56:55;;;;;;;10.48;6.07;;;;;;;;;;4964165;28;20217;-60
2022/04/27 03:59:20;;;;;;;11.45;6.43;;;;;;;;;;4982531;28;20232;-60
2022/04/27 04:01:45;;;;;;;14.10;6.97;;;;;;;;;;4971701;28;20226;-61
2022/04/27 04:04:11;;;;;;;13.68;6.82;;;;;;;;;;4956437;28;21279;-61
2022/04/27 04:06:39;;;;;;;11.95;6.53;;;;;;;;;;4956079;28;20210;-60
2022/04/27 04:09:04;;;;;;;10.80;6.30;;;;;;;;;;4974732;28;20879;-61
2022/04/27 04:11:29;;;;;;;10.93;6.70;;;;;;;;;;4983047;28;20217;-61
2022/04/27 04:13:54;;;;;;;11.32;6.85;;;;;;;;;;4983018;28;20209;-61
2022/04/27 04:16:20;;;;;;;13.77;7.28;;;;;;;;;;4981983;28;20221;-61
2022/04/27 04:18:45;;;;;;;12.73;6.90;;;;;;;;;;4982898;28;21324;-62
2022/04/27 04:21:10;;;;;;;12.43;6.30;;;;;;;;;;4981931;28;20205;-62
2022/04/27 04:23:36;;;;;;;12.40;7.22;;;;;;;;;;4982844;28;20213;-61
2022/04/27 04:28:45;;;;;;;9.52;6.50;;;;;;;;;;4974154;28;20239;-61
2022/04/27 04:31:10;;;;;;;13.02;7.38;;;;;;;;;;4975411;28;20307;-61
2022/04/27 04:33:35;;;;;;;13.38;6.40;;;;;;;;;;4980899;28;20217;-61
2022/04/27 04:36:01;;;;;;;12.23;6.53;;;;;;;;;;4981945;28;20201;-61
2022/04/27 04:38:26;;;;;;;9.63;6.28;;;;;;;;;;4969681;28;20226;-61
2022/04/27 04:40:52;;;;;;;10.38;5.97;;;;;;;;;;4964431;28;20224;-61
2022/04/27 04:43:18;;;;;;;8.27;5.63;;;;;;;;;;4963599;28;20260;-61
2022/04/27 04:45:43;;;;;;;9.80;5.65;;;;;;;;;;5003713;28;20236;-61
2022/04/27 04:48:08;;;;;;;11.10;6.07;;;;;;;;;;4991500;28;20217;-61
2022/04/27 04:50:34;;;;;;;9.15;5.93;;;;;;;;;;4992256;28;20205;-61
2022/04/27 04:53:00;;;;;;;10.45;5.00;;;;;;;;;;4992921;28;20216;-61
2022/04/27 04:55:25;;;;;;;12.15;5.53;;;;;;;;;;4990990;28;20214;-62
2022/04/27 04:57:50;;;;;;;10.43;5.43;;;;;;;;;;4994742;28;20225;-62
2022/04/27 05:00:15;;;;;;;9.50;5.20;;;;;;;;;;4996136;28;20443;-61
2022/04/27 05:02:41;;;;;;;10.43;5.18;;;;;;;;;;4996824;28;20228;-61
2022/04/27 05:05:06;;;;;;;10.07;4.93;;;;;;;;;;4994317;28;20676;-61
2022/04/27 05:07:33;;;;;;;12.63;5.80;;;;;;;;;;4995616;28;20799;-61
2022/04/27 05:09:58;;;;;;;8.98;5.07;;;;;;;;;;4996536;28;20209;-61
2022/04/27 05:12:23;;;;;;;13.88;5.00;;;;;;;;;;4995517;28;20292;-61
2022/04/27 05:14:49;;;;;;;9.80;4.82;;;;;;;;;;4996613;28;20220;-61
2022/04/27 05:17:14;;;;;;;10.48;4.85;;;;;;;;;;4996379;28;20312;-61
2022/04/27 05:19:40;;;;;;;9.07;4.78;;;;;;;;;;4995652;28;20213;-60
2022/04/27 05:22:05;;;;;;;9.05;5.03;;;;;;;;;;4996296;28;20236;-60
2022/04/27 05:24:30;;;;;;;12.65;4.30;;;;;;;;;;4995528;28;20270;-61
2022/04/27 05:26:55;;;;;;;7.85;4.75;;;;;;;;;;4996472;28;20677;-66
2022/04/27 05:32:05;;;;;;;11.23;4.47;;;;;;;;;;4995225;28;20219;-68
2022/04/27 05:34:33;;;;;;;7.88;4.50;;;;;;;;;;4996347;28;20213;-65
2022/04/27 05:36:58;;;;;;;10.23;4.40;;;;;;;;;;4995802;28;20229;-65
2022/04/27 05:39:23;;;;;;;9.02;4.95;;;;;;;;;;4994400;28;20295;-65
2022/04/27 05:41:50;;;;;;;10.60;4.57;;;;;;;;;;4995676;28;20225;-66
2022/04/27 05:44:16;;;;;;;8.93;4.50;;;;;;;;;;4995022;28;20201;-66
2022/04/27 05:46:41;;;;;;;7.80;4.32;;;;;;;;;;4994259;28;20201;-67
2022/04/27 05:49:07;;;;;;;9.63;5.15;;;;;;;;;;5009887;28;20590;-65
2022/04/27 05:51:32;;;;;;;11.85;4.75;;;;;;;;;;4995541;28;20555;-65
2022/04/27 05:53:57;;;;;;;10.88;6.47;;;;;;;;;;4994698;28;20213;-66
2022/04/27 05:56:24;;;;;;;10.18;5.45;;;;;;;;;;4994324;28;20225;-65
2022/04/27 05:58:49;;;;;;;10.70;5.43;;;;;;;;;;4995930;28;20693;-67
2022/04/27 06:01:15;;;;;;;10.95;5.47;;;;;;;;;;4994593;28;20284;-66
2022/04/27 06:03:40;;;;;;;14.30;6.05;;;;;;;;;;4994852;28;20213;-66
2022/04/27 06:06:06;;;;;;;10.05;5.32;;;;;;;;;;4994483;28;20585;-65
2022/04/27 06:08:31;;;;;;;10.63;5.57;;;;;;;;;;4994150;28;20264;-65
2022/04/27 06:10:56;;;;;;;9.52;5.15;;;;;;;;;;4995146;28;20197;-65
2022/04/27 06:13:21;;;;;;;10.75;5.43;;;;;;;;;;4994802;28;20304;-66
2022/04/27 06:15:47;;;;;;;12.88;5.68;;;;;;;;;;4994680;28;20688;-66
2022/04/27 06:18:12;;;;;;;13.45;5.60;;;;;;;;;;4995159;28;20304;-66
2022/04/27 06:20:38;;;;;;;10.57;4.95;;;;;;;;;;4995234;28;20676;-64
2022/04/27 06:23:03;;;;;;;10.05;5.28;;;;;;;;;;4995043;28;20232;-64
2022/04/27 06:25:30;;;;;;;9.65;5.50;;;;;;;;;;4995399;28;20213;-66
2022/04/27 06:27:55;;;;;;;11.57;5.07;;;;;;;;;;4993265;28;20267;-63
2022/04/27 06:30:21;;;;;;;12.55;5.65;;;;;;;;;;4994907;28;20558;-66
2022/04/27 06:32:46;;;;;;;10.82;5.57;;;;;;;;;;4995407;28;20304;-63
2022/04/27 06:35:13;;;;;;;13.50;5.63;;;;;;;;;;4991192;28;20677;-65
2022/04/27 06:37:39;;;;;;;12.13;4.90;;;;;;;;;;4986544;28;20251;-64
2022/04/27 06:40:04;;;;;;;11.05;5.30;;;;;;;;;;4994641;28;20688;-64
2022/04/27 06:42:30;;;;;;;12.23;5.50;;;;;;;;;;4992886;28;20617;-65
2022/04/27 06:44:55;;;;;;;13.00;5.90;;;;;;;;;;4994979;28;20271;-64
2022/04/27 06:47:20;;;;;;;15.25;5.78;;;;;;;;;;4993765;28;20228;-65
2022/04/27 06:49:46;;;;;;;12.88;5.45;;;;;;;;;;4989532;28;20220;-65
2022/04/27 06:52:11;;;;;;;14.50;5.40;;;;;;;;;;4986482;28;20301;-64
2022/04/27 06:54:36;;;;;;;11.20;5.60;;;;;;;;;;4981748;28;20213;-64
2022/04/27 06:57:01;;;;;;;9.50;5.50;;;;;;;;;;4988046;28;20583;-64
2022/04/27 06:59:27;;;;;;;12.52;5.20;;;;;;;;;;4994669;28;20308;-66
2022/04/27 07:01:53;;;;;;;11.27;5.30;;;;;;;;;;4994532;28;20232;-63
2022/04/27 07:04:19;;;;;;;11.13;5.47;;;;;;;;;;4990480;28;20312;-60
2022/04/27 07:06:44;;;;;;;12.63;5.90;;;;;;;;;;4986899;28;20209;-60
2022/04/27 07:09:11;;;;;;;10.32;5.38;;;;;;;;;;4974742;28;20236;-60
2022/04/27 07:11:36;;;;;;;11.90;6.43;;;;;;;;;;4974165;28;20210;-60
2022/04/27 07:14:02;;;;;;;12.90;5.60;;;;;;;;;;4974682;28;20209;-61
2022/04/27 07:16:27;;;;;;;10.68;4.93;;;;;;;;;;4974658;28;20677;-62
2022/04/27 07:18:53;;;;;;;12.35;5.57;;;;;;;;;;4973209;28;20272;-61
2022/04/27 07:21:19;;;;;;;13.75;5.88;;;;;;;;;;4983919;28;20210;-61
2022/04/27 07:23:44;;;;;;;12.07;5.10;;;;;;;;;;4981730;28;20209;-61
2022/04/27 07:26:09;;;;;;;9.25;5.05;;;;;;;;;;4992853;28;20205;-60
2022/04/27 07:28:36;;;;;;;8.70;4.85;;;;;;;;;;4993894;28;20217;-60
2022/04/27 07:31:01;;;;;;;12.50;5.63;;;;;;;;;;4993048;28;20241;-61
2022/04/27 07:33:26;;;;;;;9.38;5.60;;;;;;;;;;4993805;28;20225;-63
2022/04/27 07:35:52;;;;;;;7.95;4.57;;;;;;;;;;4988256;28;20240;-63
2022/04/27 07:38:17;;;;;;;9.88;5.30;;;;;;;;;;4981940;28;20645;-63
2022/04/27 07:40:42;;;;;;;10.25;4.68;;;;;;;;;;4974707;28;20209;-63
2022/04/27 07:43:07;;;;;;;11.95;5.20;;;;;;;;;;4974638;28;20272;-63
2022/04/27 07:45:33;;;;;;;8.85;4.65;;;;;;;;;;4993091;28;20295;-60
2022/04/27 07:47:58;;;;;;;8.48;4.45;;;;;;;;;;4993482;28;20233;-61
2022/04/27 07:50:23;;;;;;;7.63;4.07;;;;;;;;;;4992711;28;20288;-61
2022/04/27 07:52:48;;;;;;;10.63;5.00;;;;;;;;;;4992849;28;20233;-61
2022/04/27 07:55:14;;;;;;;8.50;4.30;;;;;;;;;;4993380;28;20549;-60
2022/04/27 07:57:39;;;;;;;8.57;4.20;;;;;;;;;;4992373;28;20699;-61
2022/04/27 08:00:07;;;;;;;11.82;4.47;;;;;;;;;;4988524;28;20300;-60
2022/04/27 08:02:33;;;;;;;11.05;4.60;;;;;;;;;;4981528;28;20226;-59
2022/04/27 08:04:58;;;;;;;8.98;4.25;;;;;;;;;;4983708;28;20229;-61
2022/04/27 08:07:23;;;;;;;8.38;4.60;;;;;;;;;;4981768;28;20218;-60
2022/04/27 08:09:48;;;;;;;7.93;3.97;;;;;;;;;;4990286;28;20733;-60
2022/04/27 08:12:14;;;;;;;10.20;4.25;;;;;;;;;;4992498;28;20304;-60
2022/04/27 08:14:39;;;;;;;7.40;4.07;;;;;;;;;;4991808;28;20689;-61
2022/04/27 08:17:04;;;;;;;7.82;3.83;;;;;;;;;;4992976;28;20228;-61
2022/04/27 08:19:30;;;;;;;9.75;3.92;;;;;;;;;;4993266;28;20213;-61
2022/04/27 08:21:55;;;;;;;7.60;3.53;;;;;;;;;;4992575;28;20747;-60
2022/04/27 08:24:21;;;;;;;5.25;2.45;;;;;;;;;;4992433;28;20225;-61
2022/04/27 08:26:47;;;;;;;6.15;1.90;;;;;;;;;;4993047;28;20217;-61
2022/04/27 08:29:12;;;;;;;4.82;2.20;;;;;;;;;;4991937;28;20313;-61
2022/04/27 08:31:38;;;;;;;5.82;2.95;;;;;;;;;;4993446;28;20236;-61
2022/04/27 08:34:03;;;;;;;5.97;2.85;;;;;;;;;;4992673;28;20209;-61
2022/04/27 08:36:28;;;;;;;6.40;2.00;;;;;;;;;;4991104;28;20711;-61
2022/04/27 08:38:54;;;;;;;4.85;2.00;;;;;;;;;;4993116;28;20213;-61
2022/04/27 08:41:19;;;;;;;4.82;1.80;;;;;;;;;;4992078;28;20213;-61
2022/04/27 08:43:44;;;;;;;6.07;1.85;;;;;;;;;;4993041;28;20217;-61
2022/04/27 08:46:10;;;;;;;7.78;2.10;;;;;;;;;;4992250;28;20217;-61
2022/04/27 08:48:35;;;;;;;5.57;1.85;;;;;;;;;;4991105;28;20635;-61
2022/04/27 08:51:03;;;;;;;8.88;2.03;;;;;;;;;;4986901;28;20218;-61
2022/04/27 08:53:28;;;;;;;7.00;2.30;;;;;;;;;;4984596;28;20638;-61
2022/04/27 08:55:55;;;;;;;5.72;2.40;;;;;;;;;;4987073;28;20703;-61
2022/04/27 08:58:22;;;;;;;5.38;2.13;;;;;;;;;;4991941;28;20236;-61
2022/04/27 09:00:47;;;;;;;5.75;2.38;;;;;;;;;;4992193;28;20212;-61
2022/04/27 09:03:26;;;;;;;4.20;2.00;;;;;;;;;;4991111;28;20324;-61
2022/04/27 09:05:55;;;;;;;4.50;2.10;;;;;;;;;;4992375;28;20715;-61
2022/04/27 09:08:20;;;;;;;7.10;2.55;;;;;;;;;;4991993;28;20216;-60
2022/04/27 09:10:46;;;;;;;8.23;2.75;;;;;;;;;;4990305;28;20215;-60
2022/04/27 09:13:11;;;;;;;5.82;2.67;;;;;;;;;;4991850;28;20212;-60
2022/04/27 09:15:36;;;;;;;4.57;2.30;;;;;;;;;;4990470;28;20244;-60
2022/04/27 09:20:47;;;;;;;5.15;2.55;;;;;;;;;;4990853;28;20320;-60
2022/04/27 09:23:19;;;;;;;5.82;3.17;;;;;;;;;;4990570;28;20209;-60
2022/04/27 09:25:45;;;;;;;4.95;2.35;;;;;;;;;;4990158;28;20205;-61
2022/04/27 09:28:10;;;;;;;7.25;2.38;;;;;;;;;;4990307;28;20264;-61
2022/04/27 09:30:35;;;;;;;6.30;2.42;;;;;;;;;;4989837;28;20205;-60
2022/04/27 09:33:00;;;;;;;5.43;2.25;;;;;;;;;;4990138;28;20241;-61
2022/04/27 09:35:32;;;;;;;6.55;2.25;;;;;;;;;;4990783;28;20213;-60
2022/04/27 09:38:14;;;;;;;6.32;2.28;;;;;;;;;;4989717;28;20245;-60
2022/04/27 09:40:44;;;;;;;5.82;2.08;;;;;;;;;;4989061;28;20229;-60
2022/04/27 09:43:13;;;;;;;5.40;2.05;;;;;;;;;;4990882;28;20220;-60
2022/04/27 09:45:39;;;;;;;4.53;2.13;;;;;;;;;;4993346;28;20209;-60
2022/04/27 09:48:04;;;;;;;6.45;2.28;;;;;;;;;;4993239;28;20216;-60
2022/04/27 09:50:47;;;;;;;5.00;2.20;;;;;;;;;;4993867;28;20279;-61
2022/04/27 09:53:13;;;;;;;5.75;2.38;;;;;;;;;;4992902;28;20205;-60
2022/04/27 09:55:42;;;;;;;8.60;2.40;;;;;;;;;;4993818;28;20669;-59
2022/04/27 09:58:09;;;;;;;5.05;2.70;;;;;;;;;;4992087;28;20221;-60
2022/04/27 10:00:36;;;;;;;5.75;2.22;;;;;;;;;;4991753;28;20209;-60
2022/04/27 10:03:02;;;;;;;6.88;2.22;;;;;;;;;;4993041;28;20216;-60
2022/04/27 10:05:28;;;;;;;6.80;2.35;;;;;;;;;;4972973;28;20202;-60
2022/04/27 10:07:53;;;;;;;6.55;2.45;;;;;;;;;;4988750;28;20223;-60
2022/04/27 10:10:19;;;;;;;4.78;2.25;;;;;;;;;;4992058;28;20296;-60
2022/04/27 10:12:44;;;;;;;6.65;2.92;;;;;;;;;;4991905;28;20299;-60
2022/04/27 10:15:09;;;;;;;7.28;2.25;;;;;;;;;;4991573;28;20436;-60
2022/04/27 10:17:34;;;;;;;8.02;2.55;;;;;;;;;;4992978;28;20221;-60
2022/04/27 10:20:00;;;;;;;5.47;2.30;;;;;;;;;;4992896;28;20216;-59
2022/04/27 10:22:26;;;;;;;4.65;2.10;;;;;;;;;;4993051;28;20225;-60
2022/04/27 10:24:51;;;;;;;5.38;1.98;;;;;;;;;;4993504;28;20213;-60
2022/04/27 10:27:18;;;;;;;6.03;2.20;;;;;;;;;;4992149;28;20228;-60
2022/04/27 10:29:44;;;;;;;5.00;2.00;;;;;;;;;;4993300;28;20250;-60
2022/04/27 10:32:09;;;;;;;6.85;2.15;;;;;;;;;;4992617;28;20284;-60
2022/04/27 10:34:35;;;;;;;5.82;2.25;;;;;;;;;;4992515;28;20209;-60
2022/04/27 10:37:00;;;;;;;3.10;1.70;;;;;;;;;;4993160;28;20300;-60
2022/04/27 10:39:26;;;;;;;5.65;2.10;;;;;;;;;;4992699;28;20210;-60
2022/04/27 10:41:54;;;;;;;5.68;2.00;;;;;;;;;;4992514;28;20216;-60
2022/04/27 10:44:20;;;;;;;7.90;2.25;;;;;;;;;;4992654;28;20518;-60
2022/04/27 10:46:45;;;;;;;7.25;2.35;;;;;;;;;;4992890;28;20519;-60
2022/04/27 10:49:22;;;;;;;4.30;2.10;;;;;;;;;;4991467;28;20309;-60
2022/04/27 10:51:58;;;;;;;3.88;1.90;;;;;;;;;;4993094;28;20209;-60
2022/04/27 10:54:27;;;;;;;6.13;2.00;;;;;;;;;;4991429;28;20522;-60
2022/04/27 10:56:52;;;;;;;3.50;1.90;;;;;;;;;;4991718;28;20711;-60
2022/04/27 10:59:51;;;;;;;5.82;2.00;;;;;;;;;;4992162;28;20220;-60
2022/04/27 11:02:31;;;;;;;4.55;2.10;;;;;;;;;;4991233;28;20677;-60
2022/04/27 11:04:56;;;;;;;4.43;1.88;;;;;;;;;;4992597;28;20296;-60
2022/04/27 11:07:26;;;;;;;4.90;2.10;;;;;;;;;;4992191;28;20304;-60
2022/04/27 11:10:01;;;;;;;4.75;2.45;;;;;;;;;;4990607;28;20593;-60
2022/04/27 11:12:28;;;;;;;4.57;2.20;;;;;;;;;;4992380;28;20221;-60
2022/04/27 11:14:59;;;;;;;4.97;1.98;;;;;;;;;;4992454;28;20283;-60
2022/04/27 11:17:25;;;;;;;7.53;2.22;;;;;;;;;;4991162;28;20665;-60
2022/04/27 11:19:50;;;;;;;6.38;2.30;;;;;;;;;;4992168;28;20213;-59
2022/04/27 11:22:16;;;;;;;6.07;2.10;;;;;;;;;;4991984;28;20225;-60
2022/04/27 11:24:46;;;;;;;3.42;2.03;;;;;;;;;;4991728;28;20220;-60
2022/04/27 11:27:12;;;;;;;3.85;1.95;;;;;;;;;;4991751;28;20209;-60
2022/04/27 11:29:37;;;;;;;5.43;2.00;;;;;;;;;;4990911;28;20220;-60
2022/04/27 11:32:05;;;;;;;6.97;1.92;;;;;;;;;;4991245;28;20248;-60
2022/04/27 11:34:32;;;;;;;5.03;2.20;;;;;;;;;;4991818;28;20612;-60
2022/04/27 11:36:57;;;;;;;7.07;2.20;;;;;;;;;;4992123;28;20276;-60
2022/04/27 11:39:23;;;;;;;6.72;2.15;;;;;;;;;;4990738;28;20221;-60
2022/04/27 11:41:57;;;;;;;4.97;2.13;;;;;;;;;;4992284;28;20572;-60
2022/04/27 11:44:22;;;;;;;6.32;2.13;;;;;;;;;;4990674;28;20236;-60
2022/04/27 11:46:47;;;;;;;4.57;2.00;;;;;;;;;;4990545;28;20633;-60
2022/04/27 11:49:13;;;;;;;4.78;2.03;;;;;;;;;;4991083;28;20256;-60
2022/04/27 11:51:38;;;;;;;4.15;1.95;;;;;;;;;;4991169;28;20617;-60
2022/04/27 11:54:03;;;;;;;4.38;1.80;;;;;;;;;;4991427;28;20228;-60
2022/04/27 11:56:34;;;;;;;6.18;2.17;;;;;;;;;;4991216;28;20558;-60
2022/04/27 11:59:06;;;;;;;6.13;2.10;;;;;;;;;;4983688;28;20328;-60
2022/04/27 12:01:31;;;;;;;6.78;2.10;;;;;;;;;;4982918;28;20570;-60
2022/04/27 12:03:57;;;;;;;5.95;2.10;;;;;;;;;;4992609;28;20292;-60
2022/04/27 12:06:22;;;;;;;6.43;2.75;;;;;;;;;;4991302;28;20217;-60
2022/04/27 12:08:47;;;;;;;5.45;2.38;;;;;;;;;;4993213;28;20569;-59
2022/04/27 12:11:25;;;;;;;6.05;2.58;;;;;;;;;;4992628;28;20665;-69
2022/04/27 12:13:51;;;;;;;5.38;2.33;;;;;;;;;;4992407;28;20259;-70
2022/04/27 12:16:17;;;;;;;4.82;2.33;;;;;;;;;;4992347;28;20225;-70
2022/04/27 12:18:50;;;;;;;5.03;2.20;;;;;;;;;;4992308;28;20569;-69
2022/04/27 12:21:24;;;;;;;6.13;2.55;;;;;;;;;;4991524;28;20579;-72
2022/04/27 12:23:50;;;;;;;6.15;2.10;;;;;;;;;;4992650;28;20208;-71
2022/04/27 12:26:15;;;;;;;4.45;1.80;;;;;;;;;;4991405;28;20220;-70
2022/04/27 12:28:41;;;;;;;4.20;2.05;;;;;;;;;;4991778;28;20205;-72
2022/04/27 12:31:08;;;;;;;6.40;2.95;;;;;;;;;;4992727;28;20755;-68
2022/04/27 12:33:33;;;;;;;7.38;2.83;;;;;;;;;;4992669;28;20237;-68
2022/04/27 12:38:55;;;;;;;6.60;2.10;;;;;;;;;;4992980;28;20248;-68
2022/04/27 12:41:29;;;;;;;5.93;2.00;;;;;;;;;;4992039;28;20670;-68
2022/04/27 12:43:54;;;;;;;5.55;2.08;;;;;;;;;;4993510;28;20738;-68
2022/04/27 12:46:20;;;;;;;3.75;2.17;;;;;;;;;;4991269;28;20221;-68
2022/04/27 12:48:45;;;;;;;4.85;2.00;;;;;;;;;;4992423;28;20208;-67
2022/04/27 12:51:10;;;;;;;4.40;2.00;;;;;;;;;;4992320;28;20221;-67
2022/04/27 12:53:36;;;;;;;4.88;2.13;;;;;;;;;;4993595;28;20212;-68
2022/04/27 12:56:03;;;;;;;5.28;2.50;;;;;;;;;;4991498;28;20229;-67
2022/04/27 12:58:29;;;;;;;6.07;2.30;;;;;;;;;;4993098;28;20356;-67
2022/04/27 13:00:54;;;;;;;6.60;2.60;;;;;;;;;;4992893;28;20201;-68
2022/04/27 13:03:19;;;;;;;4.60;2.50;;;;;;;;;;4991842;28;20217;-69
2022/04/27 13:05:45;;;;;;;3.92;2.25;;;;;;;;;;4990516;28;20570;-67
2022/04/27 13:08:11;;;;;;;5.10;2.58;;;;;;;;;;4992375;28;20217;-68
2022/04/27 13:13:22;;;;;;;4.50;2.33;;;;;;;;;;4992554;28;20723;-68
2022/04/27 13:15:47;;;;;;;6.32;2.70;;;;;;;;;;4992113;28;20289;-69
2022/04/27 13:18:13;;;;;;;6.60;2.38;;;;;;;;;;4994343;28;20221;-66
2022/04/27 13:20:39;;;;;;;3.50;1.90;;;;;;;;;;4994604;28;20216;-68
2022/04/27 13:23:05;;;;;;;6.25;2.28;;;;;;;;;;4994631;28;20684;-68
2022/04/27 13:25:30;;;;;;;5.63;2.10;;;;;;;;;;5014916;28;20294;-68
2022/04/27 13:27:55;;;;;;;4.85;2.15;;;;;;;;;;5015851;28;20287;-67
2022/04/27 13:30:20;;;;;;;6.07;2.20;;;;;;;;;;5005532;28;20244;-68
2022/04/27 13:32:48;;;;;;;6.40;2.65;;;;;;;;;;4995845;28;20237;-68
2022/04/27 13:35:13;;;;;;;6.53;2.47;;;;;;;;;;4994289;28;20205;-67
2022/04/27 13:37:38;;;;;;;7.20;2.60;;;;;;;;;;4995402;28;20225;-68
2022/04/27 13:40:04;;;;;;;7.72;2.80;;;;;;;;;;4996157;28;20216;-71
2022/04/27 13:42:29;;;;;;;6.53;2.65;;;;;;;;;;4996276;28;20217;-69
2022/04/27 13:44:55;;;;;;;5.45;2.72;;;;;;;;;;4995597;28;20213;-67
2022/04/27 13:47:22;;;;;;;6.03;2.90;;;;;;;;;;4995730;28;20619;-67
2022/04/27 13:49:48;;;;;;;6.47;2.60;;;;;;;;;;4995713;28;20239;-67
2022/04/27 13:52:13;;;;;;;7.70;2.60;;;;;;;;;;4994557;28;20696;-69
2022/04/27 13:54:38;;;;;;;4.65;2.40;;;;;;;;;;4995968;28;20674;-67
2022/04/27 13:57:04;;;;;;;5.70;2.60;;;;;;;;;;4995060;28;20320;-65
2022/04/27 13:59:29;;;;;;;6.32;2.72;;;;;;;;;;4995075;28;20201;-67
2022/04/27 14:01:54;;;;;;;5.60;2.72;;;;;;;;;;4995769;28;20225;-67
2022/04/27 14:04:20;;;;;;;6.78;2.88;;;;;;;;;;4995355;28;20596;-68
2022/04/27 14:06:45;;;;;;;5.88;2.67;;;;;;;;;;4994643;28;20233;-67
2022/04/27 14:09:11;;;;;;;5.75;2.90;;;;;;;;;;4995359;28;20213;-67
2022/04/27 14:14:20;;;;;;;7.63;2.70;;;;;;;;;;4995236;28;20272;-67
2022/04/27 14:19:32;;;;;;;7.05;3.15;;;;;;;;;;4994018;28;20699;-66
2022/04/27 14:21:58;;;;;;;4.30;2.47;;;;;;;;;;4995194;28;20212;-68
2022/04/27 14:24:23;;;;;;;4.53;2.40;;;;;;;;;;4993669;28;20292;-67
2022/04/27 14:26:48;;;;;;;7.80;2.67;;;;;;;;;;4993463;28;20224;-67
2022/04/27 14:29:14;;;;;;;7.28;2.90;;;;;;;;;;4999508;28;20250;-67
2022/04/27 14:31:39;;;;;;;6.88;2.63;;;;;;;;;;5014857;28;20208;-68
2022/04/27 14:34:05;;;;;;;5.88;2.70;;;;;;;;;;5013319;28;20239;-67
2022/04/27 14:36:30;;;;;;;5.75;2.72;;;;;;;;;;5014850;28;20200;-69
2022/04/27 14:38:58;;;;;;;6.88;2.65;;;;;;;;;;5014619;28;20220;-69
2022/04/27 14:41:23;;;;;;;4.40;2.45;;;;;;;;;;5013504;28;20212;-69
2022/04/27 14:43:48;;;;;;;7.00;2.35;;;;;;;;;;5015374;28;20215;-69
2022/04/27 14:46:14;;;;;;;7.32;2.60;;;;;;;;;;5014389;28;20212;-68
2022/04/27 14:48:42;;;;;;;5.22;2.20;;;;;;;;;;5013483;28;20208;-69
2022/04/27 14:51:07;;;;;;;7.68;2.88;;;;;;;;;;5013965;28;20212;-68
2022/04/27 14:53:33;;;;;;;7.30;3.08;;;;;;;;;;5014240;28;20217;-69
2022/04/27 14:55:58;;;;;;;7.18;2.92;;;;;;;;;;5007506;28;20231;-69
2022/04/27 14:58:24;;;;;;;6.97;2.75;;;;;;;;;;4994250;28;20686;-69